sensor_id;sensor_type;location;lat;lon;timestamp;pressure;altitude;pressure_sealevel;temperature;humidity
38630;BME280;24384;51.988;4.644;2023-03-25T00:01:19;100170.34;;;8.85;78.49
38630;BME280;24384;51.988;4.644;2023-03-25T00:03:49;100177.25;;;8.88;78.95
38630;BME280;24384;51.988;4.644;2023-03-25T00:06:17;100174.66;;;8.86;78.70
38630;BME280;24384;51.988;4.644;2023-03-25T00:08:42;100178.13;;;8.88;78.62
38630;BME280;24384;51.988;4.644;2023-03-25T00:11:08;100188.75;;;8.85;78.90
38630;BME280;24384;51.988;4.644;2023-03-25T00:13:33;100179.13;;;8.84;79.00
38630;BME280;24384;51.988;4.644;2023-03-25T00:15:59;100185.19;;;8.86;78.54
38630;BME280;24384;51.988;4.644;2023-03-25T00:18:25;100179.13;;;8.84;77.90
38630;BME280;24384;51.988;4.644;2023-03-25T00:20:53;100166.78;;;8.86;78.37
38630;BME280;24384;51.988;4.644;2023-03-25T00:23:19;100172.16;;;8.83;78.13
38630;BME280;24384;51.988;4.644;2023-03-25T00:25:44;100174.78;;;8.83;78.61
38630;BME280;24384;51.988;4.644;2023-03-25T00:28:13;100167.00;;;8.80;78.63
38630;BME280;24384;51.988;4.644;2023-03-25T00:30:40;100165.31;;;8.79;77.82
38630;BME280;24384;51.988;4.644;2023-03-25T00:33:05;100157.41;;;8.79;78.16
38630;BME280;24384;51.988;4.644;2023-03-25T00:35:30;100162.72;;;8.77;78.17
38630;BME280;24384;51.988;4.644;2023-03-25T00:37:58;100161.84;;;8.77;77.61
38630;BME280;24384;51.988;4.644;2023-03-25T00:40:27;100168.78;;;8.80;77.61
38630;BME280;24384;51.988;4.644;2023-03-25T00:42:52;100156.31;;;8.85;77.92
38630;BME280;24384;51.988;4.644;2023-03-25T00:45:18;100155.47;;;8.84;77.70
38630;BME280;24384;51.988;4.644;2023-03-25T00:47:43;100159.00;;;8.83;78.17
38630;BME280;24384;51.988;4.644;2023-03-25T00:50:08;100166.88;;;8.83;77.62
38630;BME280;24384;51.988;4.644;2023-03-25T00:52:33;100152.84;;;8.84;77.54
38630;BME280;24384;51.988;4.644;2023-03-25T00:54:59;100163.34;;;8.84;77.82
38630;BME280;24384;51.988;4.644;2023-03-25T00:57:25;100156.41;;;8.82;77.78
38630;BME280;24384;51.988;4.644;2023-03-25T00:59:51;100167.94;;;8.79;78.25
38630;BME280;24384;51.988;4.644;2023-03-25T01:02:16;100157.34;;;8.81;77.90
38630;BME280;24384;51.988;4.644;2023-03-25T01:04:42;100160.91;;;8.80;78.11
38630;BME280;24384;51.988;4.644;2023-03-25T01:07:09;100165.41;;;8.76;78.99
38630;BME280;24384;51.988;4.644;2023-03-25T01:09:34;100157.59;;;8.74;78.53
38630;BME280;24384;51.988;4.644;2023-03-25T01:12:00;100158.53;;;8.72;78.84
38630;BME280;24384;51.988;4.644;2023-03-25T01:14:25;100155.41;;;8.62;81.44
38630;BME280;24384;51.988;4.644;2023-03-25T01:16:52;100158.34;;;8.53;83.26
38630;BME280;24384;51.988;4.644;2023-03-25T01:19:17;100165.66;;;8.43;84.84
38630;BME280;24384;51.988;4.644;2023-03-25T01:21:42;100159.81;;;8.35;84.75
38630;BME280;24384;51.988;4.644;2023-03-25T01:24:09;100173.06;;;8.32;84.04
38630;BME280;24384;51.988;4.644;2023-03-25T01:26:35;100163.44;;;8.31;85.05
38630;BME280;24384;51.988;4.644;2023-03-25T01:29:01;100156.44;;;8.31;84.48
38630;BME280;24384;51.988;4.644;2023-03-25T01:31:26;100159.91;;;8.32;85.25
38630;BME280;24384;51.988;4.644;2023-03-25T01:33:54;100164.50;;;8.27;85.03
38630;BME280;24384;51.988;4.644;2023-03-25T01:36:19;100155.63;;;8.29;85.16
38630;BME280;24384;51.988;4.644;2023-03-25T01:38:45;100160.13;;;8.25;85.61
38630;BME280;24384;51.988;4.644;2023-03-25T01:41:11;100157.56;;;8.24;85.47
38630;BME280;24384;51.988;4.644;2023-03-25T01:43:37;100167.22;;;8.23;86.32
38630;BME280;24384;51.988;4.644;2023-03-25T01:46:02;100162.16;;;8.17;86.77
38630;BME280;24384;51.988;4.644;2023-03-25T01:48:29;100168.22;;;8.19;85.98
38630;BME280;24384;51.988;4.644;2023-03-25T01:51:05;100148.00;;;8.21;86.87
38630;BME280;24384;51.988;4.644;2023-03-25T01:53:31;100167.44;;;8.17;87.01
38630;BME280;24384;51.988;4.644;2023-03-25T01:55:58;100140.34;;;8.15;87.30
38630;BME280;24384;51.988;4.644;2023-03-25T01:58:26;100159.50;;;8.19;86.80
38630;BME280;24384;51.988;4.644;2023-03-25T02:00:53;100155.19;;;8.16;86.54
38630;BME280;24384;51.988;4.644;2023-03-25T02:03:19;100155.03;;;8.21;86.30
38630;BME280;24384;51.988;4.644;2023-03-25T02:05:47;100156.59;;;8.27;86.54
38630;BME280;24384;51.988;4.644;2023-03-25T02:08:14;100129.34;;;8.29;85.52
38630;BME280;24384;51.988;4.644;2023-03-25T02:10:40;100123.19;;;8.30;85.12
38630;BME280;24384;51.988;4.644;2023-03-25T02:13:08;100139.06;;;8.27;85.61
38630;BME280;24384;51.988;4.644;2023-03-25T02:15:40;100131.13;;;8.29;85.59
38630;BME280;24384;51.988;4.644;2023-03-25T02:18:25;100138.84;;;8.33;85.68
38630;BME280;24384;51.988;4.644;2023-03-25T02:28:49;100128.50;;;8.29;86.18
38630;BME280;24384;51.988;4.644;2023-03-25T02:41:50;100113.59;;;8.29;86.47
38630;BME280;24384;51.988;4.644;2023-03-25T02:46:49;100121.53;;;8.28;87.14
38630;BME280;24384;51.988;4.644;2023-03-25T02:49:20;100124.25;;;8.24;87.28
38630;BME280;24384;51.988;4.644;2023-03-25T02:51:50;100121.63;;;8.24;87.15
38630;BME280;24384;51.988;4.644;2023-03-25T02:54:17;100121.53;;;8.28;87.26
38630;BME280;24384;51.988;4.644;2023-03-25T02:56:44;100115.53;;;8.24;87.08
38630;BME280;24384;51.988;4.644;2023-03-25T02:59:11;100109.44;;;8.23;87.00
38630;BME280;24384;51.988;4.644;2023-03-25T03:01:40;100109.44;;;8.23;86.70
38630;BME280;24384;51.988;4.644;2023-03-25T03:04:06;100109.53;;;8.20;87.54
38630;BME280;24384;51.988;4.644;2023-03-25T03:06:33;100113.00;;;8.21;86.96
38630;BME280;24384;51.988;4.644;2023-03-25T03:09:21;100106.81;;;8.23;86.64
38630;BME280;24384;51.988;4.644;2023-03-25T03:19:55;100088.00;;;8.09;89.22
38630;BME280;24384;51.988;4.644;2023-03-25T03:24:54;100092.56;;;8.04;90.41
38630;BME280;24384;51.988;4.644;2023-03-25T03:29:53;100072.00;;;7.92;92.66
38630;BME280;24384;51.988;4.644;2023-03-25T03:32:31;100090.47;;;7.88;93.72
38630;BME280;24384;51.988;4.644;2023-03-25T03:35:02;100093.19;;;7.85;94.39
38630;BME280;24384;51.988;4.644;2023-03-25T03:37:35;100104.72;;;7.81;95.11
38630;BME280;24384;51.988;4.644;2023-03-25T03:40:04;100088.25;;;7.76;95.20
38630;BME280;24384;51.988;4.644;2023-03-25T03:42:33;100095.34;;;7.74;95.78
38630;BME280;24384;51.988;4.644;2023-03-25T03:45:01;100088.25;;;7.76;96.30
38630;BME280;24384;51.988;4.644;2023-03-25T03:47:28;100089.25;;;7.72;97.04
38630;BME280;24384;51.988;4.644;2023-03-25T03:49:59;100099.72;;;7.74;97.47
38630;BME280;24384;51.988;4.644;2023-03-25T03:52:32;100096.34;;;7.70;97.58
38630;BME280;24384;51.988;4.644;2023-03-25T03:55:36;100104.13;;;7.73;96.00
38630;BME280;24384;51.988;4.644;2023-03-25T03:57:55;100097.00;;;7.77;94.63
38630;BME280;24384;51.988;4.644;2023-03-25T04:00:26;100110.13;;;7.77;94.72
38630;BME280;24384;51.988;4.644;2023-03-25T04:02:56;100104.00;;;7.76;94.96
38630;BME280;24384;51.988;4.644;2023-03-25T04:05:24;100106.44;;;7.82;94.53
38630;BME280;24384;51.988;4.644;2023-03-25T04:07:59;100112.59;;;7.81;94.50
38630;BME280;24384;51.988;4.644;2023-03-25T04:10:32;100102.09;;;7.81;94.51
38630;BME280;24384;51.988;4.644;2023-03-25T04:13:06;100102.09;;;7.81;93.37
38630;BME280;24384;51.988;4.644;2023-03-25T04:15:33;100101.22;;;7.81;93.89
38630;BME280;24384;51.988;4.644;2023-03-25T04:17:58;100100.22;;;7.85;92.84
38630;BME280;24384;51.988;4.644;2023-03-25T04:20:25;100105.44;;;7.86;92.42
38630;BME280;24384;51.988;4.644;2023-03-25T04:22:53;100088.50;;;7.95;91.75
38630;BME280;24384;51.988;4.644;2023-03-25T04:25:18;100078.88;;;7.96;91.52
38630;BME280;24384;51.988;4.644;2023-03-25T04:27:49;100104.19;;;7.97;91.21
38630;BME280;24384;51.988;4.644;2023-03-25T04:30:18;100103.34;;;7.96;90.45
38630;BME280;24384;51.988;4.644;2023-03-25T04:32:44;100090.06;;;8.01;90.62
38630;BME280;24384;51.988;4.644;2023-03-25T04:35:13;100092.69;;;8.01;90.20
38630;BME280;24384;51.988;4.644;2023-03-25T04:37:38;100094.50;;;7.99;90.39
38630;BME280;24384;51.988;4.644;2023-03-25T04:40:03;100097.09;;;8.00;90.92
38630;BME280;24384;51.988;4.644;2023-03-25T04:42:30;100091.56;;;8.08;90.71
38630;BME280;24384;51.988;4.644;2023-03-25T04:45:02;100096.88;;;8.06;89.92
38630;BME280;24384;51.988;4.644;2023-03-25T04:47:27;100095.91;;;8.09;90.38
38630;BME280;24384;51.988;4.644;2023-03-25T04:49:52;100101.09;;;8.11;90.37
38630;BME280;24384;51.988;4.644;2023-03-25T04:52:17;100107.22;;;8.11;90.85
38630;BME280;24384;51.988;4.644;2023-03-25T04:54:42;100101.03;;;8.12;89.33
38630;BME280;24384;51.988;4.644;2023-03-25T04:57:08;100092.38;;;8.10;89.50
38630;BME280;24384;51.988;4.644;2023-03-25T04:59:34;100094.19;;;8.08;88.66
38630;BME280;24384;51.988;4.644;2023-03-25T05:02:00;100111.81;;;8.04;89.85
38630;BME280;24384;51.988;4.644;2023-03-25T05:04:27;100102.97;;;8.07;88.97
38630;BME280;24384;51.988;4.644;2023-03-25T05:06:52;100114.34;;;8.07;88.63
38630;BME280;24384;51.988;4.644;2023-03-25T05:09:19;100115.09;;;8.11;88.32
38630;BME280;24384;51.988;4.644;2023-03-25T05:11:48;100126.78;;;8.02;89.55
38630;BME280;24384;51.988;4.644;2023-03-25T05:14:16;100118.91;;;8.02;88.50
38630;BME280;24384;51.988;4.644;2023-03-25T05:16:41;100130.34;;;8.00;88.11
38630;BME280;24384;51.988;4.644;2023-03-25T05:19:07;100125.03;;;8.01;86.99
38630;BME280;24384;51.988;4.644;2023-03-25T05:21:36;100103.25;;;7.99;87.99
38630;BME280;24384;51.988;4.644;2023-03-25T05:24:02;100118.19;;;7.97;88.10
38630;BME280;24384;51.988;4.644;2023-03-25T05:26:27;100127.72;;;8.00;87.44
38630;BME280;24384;51.988;4.644;2023-03-25T05:29:04;100117.53;;;7.91;88.03
38630;BME280;24384;51.988;4.644;2023-03-25T05:31:30;100127.97;;;7.92;88.27
38630;BME280;24384;51.988;4.644;2023-03-25T05:33:55;100126.03;;;7.99;86.79
38630;BME280;24384;51.988;4.644;2023-03-25T05:36:20;100108.34;;;8.04;86.93
38630;BME280;24384;51.988;4.644;2023-03-25T05:38:49;100137.22;;;8.04;87.07
38630;BME280;24384;51.988;4.644;2023-03-25T05:41:15;100150.16;;;8.10;86.28
38630;BME280;24384;51.988;4.644;2023-03-25T05:43:44;100155.50;;;8.07;86.82
38630;BME280;24384;51.988;4.644;2023-03-25T05:46:15;100149.34;;;8.08;86.05
38630;BME280;24384;51.988;4.644;2023-03-25T05:48:40;100137.81;;;8.12;86.53
38630;BME280;24384;51.988;4.644;2023-03-25T05:51:09;100137.06;;;8.09;86.78
38630;BME280;24384;51.988;4.644;2023-03-25T05:53:37;100146.69;;;8.10;86.32
38630;BME280;24384;51.988;4.644;2023-03-25T05:56:03;100119.44;;;8.12;85.59
38630;BME280;24384;51.988;4.644;2023-03-25T05:58:28;100143.06;;;8.12;85.67
38630;BME280;24384;51.988;4.644;2023-03-25T06:00:56;100157.13;;;8.11;86.76
38630;BME280;24384;51.988;4.644;2023-03-25T06:03:21;100141.25;;;8.14;85.86
38630;BME280;24384;51.988;4.644;2023-03-25T06:05:50;100155.41;;;8.10;86.78
38630;BME280;24384;51.988;4.644;2023-03-25T06:08:17;100147.72;;;8.04;87.25
38630;BME280;24384;51.988;4.644;2023-03-25T06:10:43;100160.06;;;8.02;86.83
38630;BME280;24384;51.988;4.644;2023-03-25T06:13:09;100162.00;;;7.95;88.18
38630;BME280;24384;51.988;4.644;2023-03-25T06:15:35;100163.75;;;7.96;87.97
38630;BME280;24384;51.988;4.644;2023-03-25T06:18:03;100167.09;;;8.00;87.43
38630;BME280;24384;51.988;4.644;2023-03-25T06:20:28;100165.38;;;8.00;87.93
38630;BME280;24384;51.988;4.644;2023-03-25T06:22:53;100155.66;;;8.02;86.97
38630;BME280;24384;51.988;4.644;2023-03-25T06:25:19;100153.13;;;7.99;87.64
38630;BME280;24384;51.988;4.644;2023-03-25T06:27:48;100159.13;;;8.03;87.86
38630;BME280;24384;51.988;4.644;2023-03-25T06:30:15;100153.69;;;8.09;88.04
38630;BME280;24384;51.988;4.644;2023-03-25T06:32:41;100152.88;;;8.07;86.85
38630;BME280;24384;51.988;4.644;2023-03-25T06:35:07;100185.19;;;8.09;87.69
38630;BME280;24384;51.988;4.644;2023-03-25T06:37:33;100168.44;;;8.13;86.31
38630;BME280;24384;51.988;4.644;2023-03-25T06:39:59;100170.84;;;8.19;86.14
38630;BME280;24384;51.988;4.644;2023-03-25T06:42:25;100175.31;;;8.17;85.98
38630;BME280;24384;51.988;4.644;2023-03-25T06:44:51;100151.66;;;8.17;86.28
38630;BME280;24384;51.988;4.644;2023-03-25T06:47:16;100173.53;;;8.18;85.70
38630;BME280;24384;51.988;4.644;2023-03-25T06:49:41;100182.25;;;8.18;86.52
38630;BME280;24384;51.988;4.644;2023-03-25T06:52:06;100179.53;;;8.21;84.65
38630;BME280;24384;51.988;4.644;2023-03-25T06:54:32;100180.25;;;8.27;86.07
38630;BME280;24384;51.988;4.644;2023-03-25T06:56:58;100168.69;;;8.31;86.24
38630;BME280;24384;51.988;4.644;2023-03-25T06:59:23;100171.34;;;8.31;84.78
38630;BME280;24384;51.988;4.644;2023-03-25T07:01:48;100174.72;;;8.34;85.23
38630;BME280;24384;51.988;4.644;2023-03-25T07:04:14;100193.13;;;8.34;84.42
38630;BME280;24384;51.988;4.644;2023-03-25T07:06:39;100194.66;;;8.40;85.10
38630;BME280;24384;51.988;4.644;2023-03-25T07:09:04;100187.59;;;8.42;84.63
38630;BME280;24384;51.988;4.644;2023-03-25T07:11:30;100186.44;;;8.51;84.58
38630;BME280;24384;51.988;4.644;2023-03-25T07:13:56;100202.22;;;8.51;84.07
38630;BME280;24384;51.988;4.644;2023-03-25T07:16:22;100180.22;;;8.53;83.37
38630;BME280;24384;51.988;4.644;2023-03-25T07:18:48;100200.41;;;8.53;84.30
38630;BME280;24384;51.988;4.644;2023-03-25T07:21:14;100189.78;;;8.56;83.08
38630;BME280;24384;51.988;4.644;2023-03-25T07:23:40;100188.91;;;8.55;82.58
38630;BME280;24384;51.988;4.644;2023-03-25T07:26:05;100175.88;;;8.52;83.09
38630;BME280;24384;51.988;4.644;2023-03-25T07:28:30;100173.19;;;8.54;82.58
38630;BME280;24384;51.988;4.644;2023-03-25T07:30:55;100194.16;;;8.55;81.92
38630;BME280;24384;51.988;4.644;2023-03-25T07:33:21;100179.09;;;8.60;82.65
38630;BME280;24384;51.988;4.644;2023-03-25T07:35:46;100197.56;;;8.59;82.72
38630;BME280;24384;51.988;4.644;2023-03-25T07:38:12;100183.38;;;8.63;81.47
38630;BME280;24384;51.988;4.644;2023-03-25T07:40:37;100183.44;;;8.62;82.99
38630;BME280;24384;51.988;4.644;2023-03-25T07:43:02;100205.28;;;8.64;82.23
38630;BME280;24384;51.988;4.644;2023-03-25T07:45:27;100186.84;;;8.65;82.07
38630;BME280;24384;51.988;4.644;2023-03-25T07:47:52;100196.31;;;8.69;81.51
38630;BME280;24384;51.988;4.644;2023-03-25T07:50:18;100193.50;;;8.74;82.39
38630;BME280;24384;51.988;4.644;2023-03-25T07:52:44;100196.13;;;8.74;82.40
38630;BME280;24384;51.988;4.644;2023-03-25T07:55:10;100193.50;;;8.74;81.55
38630;BME280;24384;51.988;4.644;2023-03-25T07:57:35;100193.63;;;8.71;81.96
38630;BME280;24384;51.988;4.644;2023-03-25T08:00:00;100178.19;;;8.62;83.26
38630;BME280;24384;51.988;4.644;2023-03-25T08:02:25;100207.59;;;8.73;83.33
38630;BME280;24384;51.988;4.644;2023-03-25T08:04:50;100199.31;;;8.84;82.41
38630;BME280;24384;51.988;4.644;2023-03-25T08:07:18;100206.34;;;8.83;82.20
38630;BME280;24384;51.988;4.644;2023-03-25T08:09:43;100203.69;;;8.83;83.47
38630;BME280;24384;51.988;4.644;2023-03-25T08:12:09;100195.91;;;8.80;81.84
38630;BME280;24384;51.988;4.644;2023-03-25T08:14:34;100228.09;;;8.88;83.44
38630;BME280;24384;51.988;4.644;2023-03-25T08:16:59;100209.78;;;8.85;82.61
38630;BME280;24384;51.988;4.644;2023-03-25T08:19:25;100257.13;;;8.85;81.30
38630;BME280;24384;51.988;4.644;2023-03-25T08:21:50;100211.25;;;8.92;80.78
38630;BME280;24384;51.988;4.644;2023-03-25T08:24:15;100193.38;;;9.02;81.49
38630;BME280;24384;51.988;4.644;2023-03-25T08:26:41;100232.56;;;9.10;81.74
38630;BME280;24384;51.988;4.644;2023-03-25T08:29:07;100229.72;;;9.16;81.16
38630;BME280;24384;51.988;4.644;2023-03-25T08:31:34;100230.91;;;9.07;81.80
38630;BME280;24384;51.988;4.644;2023-03-25T08:34:03;100225.63;;;9.07;81.25
38630;BME280;24384;51.988;4.644;2023-03-25T08:36:28;100228.88;;;9.14;81.27
38630;BME280;24384;51.988;4.644;2023-03-25T08:38:53;100237.72;;;9.13;80.83
38630;BME280;24384;51.988;4.644;2023-03-25T08:41:19;100238.34;;;9.20;80.63
38630;BME280;24384;51.988;4.644;2023-03-25T08:43:44;100242.41;;;9.28;80.23
38630;BME280;24384;51.988;4.644;2023-03-25T08:46:09;100245.88;;;9.29;80.78
38630;BME280;24384;51.988;4.644;2023-03-25T08:48:35;100210.72;;;9.31;81.39
38630;BME280;24384;51.988;4.644;2023-03-25T08:51:00;100224.66;;;9.34;80.20
38630;BME280;24384;51.988;4.644;2023-03-25T08:53:26;100241.59;;;9.50;81.32
38630;BME280;24384;51.988;4.644;2023-03-25T08:55:52;100243.88;;;9.36;81.02
38630;BME280;24384;51.988;4.644;2023-03-25T08:58:18;100249.13;;;9.36;80.37
38630;BME280;24384;51.988;4.644;2023-03-25T09:00:43;100238.44;;;9.40;80.58
38630;BME280;24384;51.988;4.644;2023-03-25T09:03:08;100238.63;;;9.59;80.05
38630;BME280;24384;51.988;4.644;2023-03-25T09:05:35;100254.28;;;9.62;79.70
38630;BME280;24384;51.988;4.644;2023-03-25T09:08:00;100239.34;;;9.63;80.16
38630;BME280;24384;51.988;4.644;2023-03-25T09:10:26;100249.31;;;9.55;79.09
38630;BME280;24384;51.988;4.644;2023-03-25T09:12:51;100249.03;;;9.62;79.86
38630;BME280;24384;51.988;4.644;2023-03-25T09:15:16;100230.84;;;9.56;78.78
38630;BME280;24384;51.988;4.644;2023-03-25T09:17:42;100243.88;;;9.59;78.99
38630;BME280;24384;51.988;4.644;2023-03-25T09:20:07;100247.19;;;9.64;78.92
38630;BME280;24384;51.988;4.644;2023-03-25T09:22:33;100246.94;;;9.71;78.02
38630;BME280;24384;51.988;4.644;2023-03-25T09:24:58;100248.50;;;9.76;77.77
38630;BME280;24384;51.988;4.644;2023-03-25T09:27:23;100236.97;;;9.79;77.50
38630;BME280;24384;51.988;4.644;2023-03-25T09:29:48;100242.94;;;9.84;78.29
38630;BME280;24384;51.988;4.644;2023-03-25T09:32:13;100249.41;;;9.75;76.32
38630;BME280;24384;51.988;4.644;2023-03-25T09:34:39;100259.03;;;9.98;77.86
38630;BME280;24384;51.988;4.644;2023-03-25T09:37:04;100255.72;;;10.15;76.84
38630;BME280;24384;51.988;4.644;2023-03-25T09:39:29;100254.75;;;10.18;75.34
38630;BME280;24384;51.988;4.644;2023-03-25T09:47:22;100262.28;;;10.27;75.30
38630;BME280;24384;51.988;4.644;2023-03-25T09:49:49;100239.59;;;10.23;74.71
38630;BME280;24384;51.988;4.644;2023-03-25T09:52:19;100243.94;;;10.24;74.60
38630;BME280;24384;51.988;4.644;2023-03-25T09:54:54;100269.09;;;10.33;74.41
38630;BME280;24384;51.988;4.644;2023-03-25T09:57:21;100256.13;;;10.27;73.71
38630;BME280;24384;51.988;4.644;2023-03-25T09:59:51;100304.63;;;10.45;74.30
38630;BME280;24384;51.988;4.644;2023-03-25T10:07:32;100271.66;;;10.55;74.15
38630;BME280;24384;51.988;4.644;2023-03-25T10:25:21;100277.16;;;10.28;73.07
38630;BME280;24384;51.988;4.644;2023-03-25T10:27:48;100292.50;;;10.41;73.56
38630;BME280;24384;51.988;4.644;2023-03-25T10:32:53;100296.75;;;10.65;73.22
38630;BME280;24384;51.988;4.644;2023-03-25T10:35:21;100297.66;;;10.64;73.10
38630;BME280;24384;51.988;4.644;2023-03-25T10:37:48;100304.03;;;10.38;73.63
38630;BME280;24384;51.988;4.644;2023-03-25T10:42:52;100305.72;;;10.39;72.92
38630;BME280;24384;51.988;4.644;2023-03-25T10:45:21;100279.75;;;10.52;72.24
38630;BME280;24384;51.988;4.644;2023-03-25T10:47:47;100320.91;;;10.54;71.04
38630;BME280;24384;51.988;4.644;2023-03-25T10:50:14;100287.03;;;10.66;70.70
38630;BME280;24384;51.988;4.644;2023-03-25T10:52:40;100311.59;;;10.68;72.61
38630;BME280;24384;51.988;4.644;2023-03-25T10:55:07;100313.97;;;10.74;73.07
38630;BME280;24384;51.988;4.644;2023-03-25T10:57:40;100325.44;;;10.93;73.16
38630;BME280;24384;51.988;4.644;2023-03-25T11:00:24;100317.91;;;11.25;71.41
38630;BME280;24384;51.988;4.644;2023-03-25T11:02:50;100327.41;;;11.09;72.18
38630;BME280;24384;51.988;4.644;2023-03-25T11:05:20;100315.22;;;10.86;73.97
38630;BME280;24384;51.988;4.644;2023-03-25T11:07:52;100307.72;;;10.97;72.66
38630;BME280;24384;51.988;4.644;2023-03-25T11:12:44;100335.53;;;10.84;73.31
38630;BME280;24384;51.988;4.644;2023-03-25T11:15:13;100321.88;;;10.95;71.88
38630;BME280;24384;51.988;4.644;2023-03-25T11:17:38;100329.13;;;11.10;71.37
38630;BME280;24384;51.988;4.644;2023-03-25T11:20:04;100313.72;;;11.01;71.57
38630;BME280;24384;51.988;4.644;2023-03-25T11:22:34;100348.00;;;11.21;71.49
38630;BME280;24384;51.988;4.644;2023-03-25T11:25:05;100331.47;;;10.97;71.43
38630;BME280;24384;51.988;4.644;2023-03-25T11:27:31;100330.00;;;10.90;70.82
38630;BME280;24384;51.988;4.644;2023-03-25T11:30:03;100323.94;;;10.88;70.94
38630;BME280;24384;51.988;4.644;2023-03-25T11:32:33;100305.81;;;10.58;70.73
38630;BME280;24384;51.988;4.644;2023-03-25T11:35:05;100359.88;;;10.48;71.45
38630;BME280;24384;51.988;4.644;2023-03-25T11:37:31;100327.63;;;10.41;72.63
38630;BME280;24384;51.988;4.644;2023-03-25T11:40:03;100335.78;;;10.57;71.59
38630;BME280;24384;51.988;4.644;2023-03-25T11:42:30;100338.94;;;10.65;71.45
38630;BME280;24384;51.988;4.644;2023-03-25T11:44:57;100334.28;;;11.13;70.44
38630;BME280;24384;51.988;4.644;2023-03-25T11:47:57;100296.63;;;11.09;68.57
38630;BME280;24384;51.988;4.644;2023-03-25T11:50:22;100342.44;;;11.48;68.73
38630;BME280;24384;51.988;4.644;2023-03-25T11:52:48;100352.03;;;11.30;71.38
38630;BME280;24384;51.988;4.644;2023-03-25T11:55:18;100318.19;;;11.59;70.30
38630;BME280;24384;51.988;4.644;2023-03-25T11:57:43;100349.28;;;13.01;65.48
38630;BME280;24384;51.988;4.644;2023-03-25T12:00:59;100309.16;;;12.39;64.44
38630;BME280;24384;51.988;4.644;2023-03-25T12:03:00;100319.22;;;11.36;67.87
38630;BME280;24384;51.988;4.644;2023-03-25T12:05:26;100336.19;;;11.30;69.15
38630;BME280;24384;51.988;4.644;2023-03-25T12:07:58;100344.03;;;11.90;68.00
38630;BME280;24384;51.988;4.644;2023-03-25T12:18:05;100324.03;;;11.65;68.20
38630;BME280;24384;51.988;4.644;2023-03-25T12:20:36;100353.91;;;11.87;67.86
38630;BME280;24384;51.988;4.644;2023-03-25T12:23:25;100350.00;;;12.51;66.00
38630;BME280;24384;51.988;4.644;2023-03-25T12:25:53;100326.13;;;12.52;65.59
38630;BME280;24384;51.988;4.644;2023-03-25T12:30:59;100348.97;;;11.79;67.27
38630;BME280;24384;51.988;4.644;2023-03-25T12:36:06;100328.91;;;12.49;65.54
38630;BME280;24384;51.988;4.644;2023-03-25T12:38:57;100334.41;;;13.16;64.60
38630;BME280;24384;51.988;4.644;2023-03-25T12:49:08;100324.84;;;11.87;66.12
38630;BME280;24384;51.988;4.644;2023-03-25T12:57:37;100351.00;;;11.93;66.71
38630;BME280;24384;51.988;4.644;2023-03-25T12:59:54;100373.47;;;11.43;68.95
38630;BME280;24384;51.988;4.644;2023-03-25T13:05:14;100369.03;;;11.23;70.87
38630;BME280;24384;51.988;4.644;2023-03-25T13:07:43;100364.97;;;11.16;71.69
38630;BME280;24384;51.988;4.644;2023-03-25T13:12:47;100367.06;;;10.87;71.17
38630;BME280;24384;51.988;4.644;2023-03-25T13:15:15;100386.34;;;11.30;71.23
38630;BME280;24384;51.988;4.644;2023-03-25T13:17:44;100394.78;;;11.59;71.21
38630;BME280;24384;51.988;4.644;2023-03-25T13:20:11;100393.69;;;11.23;71.04
38630;BME280;24384;51.988;4.644;2023-03-25T13:22:40;100387.53;;;11.43;71.48
38630;BME280;24384;51.988;4.644;2023-03-25T13:28:08;100382.94;;;11.28;69.23
38630;BME280;24384;51.988;4.644;2023-03-25T13:30:36;100421.81;;;11.02;68.87
38630;BME280;24384;51.988;4.644;2023-03-25T13:33:06;100429.41;;;10.89;71.50
38630;BME280;24384;51.988;4.644;2023-03-25T13:44:07;100395.97;;;9.76;81.51
38630;BME280;24384;51.988;4.644;2023-03-25T13:46:28;100406.75;;;10.16;81.94
38630;BME280;24384;51.988;4.644;2023-03-25T13:51:40;100380.34;;;11.26;74.22
38630;BME280;24384;51.988;4.644;2023-03-25T13:54:07;100378.34;;;10.90;73.29
38630;BME280;24384;51.988;4.644;2023-03-25T14:04:45;100403.38;;;14.31;63.25
38630;BME280;24384;51.988;4.644;2023-03-25T14:15:02;100379.72;;;14.90;58.05
38630;BME280;24384;51.988;4.644;2023-03-25T14:17:29;100398.75;;;14.35;57.65
38630;BME280;24384;51.988;4.644;2023-03-25T14:19:56;100385.84;;;13.63;60.63
38630;BME280;24384;51.988;4.644;2023-03-25T14:22:29;100394.50;;;13.49;61.20
38630;BME280;24384;51.988;4.644;2023-03-25T14:24:55;100411.25;;;13.67;61.86
38630;BME280;24384;51.988;4.644;2023-03-25T14:34:45;100450.19;;;14.32;60.37
38630;BME280;24384;51.988;4.644;2023-03-25T14:37:24;100440.00;;;13.22;62.36
38630;BME280;24384;51.988;4.644;2023-03-25T14:39:54;100425.94;;;12.85;64.28
38630;BME280;24384;51.988;4.644;2023-03-25T14:42:28;100432.31;;;12.26;64.47
38630;BME280;24384;51.988;4.644;2023-03-25T14:47:49;100418.50;;;12.38;63.56
38630;BME280;24384;51.988;4.644;2023-03-25T14:52:50;100435.63;;;11.71;66.98
38630;BME280;24384;51.988;4.644;2023-03-25T14:55:26;100446.88;;;11.76;67.43
38630;BME280;24384;51.988;4.644;2023-03-25T14:57:57;100448.50;;;11.78;69.17
38630;BME280;24384;51.988;4.644;2023-03-25T15:00:24;100445.28;;;11.72;68.63
38630;BME280;24384;51.988;4.644;2023-03-25T15:03:14;100427.06;;;11.65;67.73
38630;BME280;24384;51.988;4.644;2023-03-25T15:05:40;100427.53;;;11.34;68.30
38630;BME280;24384;51.988;4.644;2023-03-25T15:10:34;100474.16;;;11.13;70.21
38630;BME280;24384;51.988;4.644;2023-03-25T15:15:33;100481.97;;;10.72;72.46
38630;BME280;24384;51.988;4.644;2023-03-25T15:23:35;100481.22;;;10.68;79.52
38630;BME280;24384;51.988;4.644;2023-03-25T15:26:05;100490.94;;;10.68;79.45
38630;BME280;24384;51.988;4.644;2023-03-25T15:47:31;100511.50;;;10.82;72.47
38630;BME280;24384;51.988;4.644;2023-03-25T15:55:29;100506.63;;;10.93;74.17
38630;BME280;24384;51.988;4.644;2023-03-25T15:58:05;100506.81;;;10.88;73.23